Time;durP1;ratioP1;P1;durP2;ratioP2;P2;SDS_P1;SDS_P2;PMS_P1;PMS_P2;Temp;Humidity;BMP_temperature;BMP_pressure;BME280_temperature;BME280_humidity;BME280_pressure;Samples;Min_cycle;Max_cycle;Signal;HPM_P1;HPM_P2
2022/08/31 00:05:34;;;;;;;;;;;;;;;;;;4995352;28;6796;-85
2022/08/31 00:07:59;;;;;;;;;;;;;;;;;;5010869;28;7014;-84
2022/08/31 00:10:28;;;;;;;;;;;;;;;;;;5010594;28;6890;-84
2022/08/31 00:12:54;;;;;;;;;;;;;;;;;;5010029;28;7405;-85
2022/08/31 00:15:22;;;;;;;;;;;;;;;;;;5010636;28;7138;-85
2022/08/31 00:17:47;;;;;;;;;;;;;;;;;;5010586;28;7026;-84
2022/08/31 00:20:15;;;;;;;;;;;;;;;;;;5010402;28;8803;-83
2022/08/31 00:22:40;;;;;;;;;;;;;;;;;;5010951;28;7227;-83
2022/08/31 00:25:07;;;;;;;;;;;;;;;;;;5010905;28;8294;-84
2022/08/31 00:27:32;;;;;;;;;;;;;;;;;;5010381;28;8387;-84
2022/08/31 00:29:58;;;;;;;;;;;;;;;;;;5010018;28;9279;-84
2022/08/31 00:32:23;;;;;;;;;;;;;;;;;;5010454;28;7116;-84
2022/08/31 00:34:51;;;;;;;;;;;;;;;;;;5011629;28;7199;-83
2022/08/31 00:37:17;;;;;;;;;;;;;;;;;;5014093;28;7150;-83
2022/08/31 00:39:42;;;;;;;;;;;;;;;;;;5013831;28;7025;-83
2022/08/31 00:42:08;;;;;;;;;;;;;;;;;;5013975;28;9495;-85
2022/08/31 00:44:33;;;;;;;;;;;;;;;;;;5013796;28;7012;-84
2022/08/31 00:46:59;;;;;;;;;;;;;;;;;;5014064;28;7117;-83
2022/08/31 00:49:28;;;;;;;;;;;;;;;;;;5013741;28;8460;-84
2022/08/31 00:52:01;;;;;;;;;;;;;;;;;;5013725;28;9321;-84
2022/08/31 00:54:31;;;;;;;;;;;;;;;;;;5014251;28;8284;-86
2022/08/31 00:56:57;;;;;;;;;;;;;;;;;;5013631;28;8849;-86
2022/08/31 00:59:24;;;;;;;;;;;;;;;;;;5013458;28;8301;-86
2022/08/31 01:01:50;;;;;;;;;;;;;;;;;;5013447;28;8740;-85
2022/08/31 01:04:16;;;;;;;;;;;;;;;;;;5013875;28;8390;-85
2022/08/31 01:06:43;;;;;;;;;;;;;;;;;;5013641;28;8976;-83
2022/08/31 01:09:11;;;;;;;;;;;;;;;;;;5013264;28;8058;-85
2022/08/31 01:11:38;;;;;;;;;;;;;;;;;;5013206;28;7155;-83
2022/08/31 01:14:04;;;;;;;;;;;;;;;;;;5013069;28;7139;-83
2022/08/31 01:16:36;;;;;;;;;;;;;;;;;;5013723;28;8755;-85
2022/08/31 01:19:04;;;;;;;;;;;;;;;;;;5013030;28;8561;-83
2022/08/31 01:21:45;;;;;;;;;;;;;;;;;;5013405;28;7156;-84
2022/08/31 01:24:13;;;;;;;;;;;;;;;;;;5013348;28;7050;-84
2022/08/31 01:26:39;;;;;;;;;;;;;;;;;;5012991;28;8394;-84
2022/08/31 01:29:05;;;;;;;;;;;;;;;;;;5013217;28;7329;-84
2022/08/31 01:31:38;;;;;;;;;;;;;;;;;;5013091;28;8390;-84
2022/08/31 01:34:04;;;;;;;;;;;;;;;;;;5013819;28;7167;-83
2022/08/31 01:36:31;;;;;;;;;;;;;;;;;;5013153;28;7490;-84
2022/08/31 01:38:57;;;;;;;;;;;;;;;;;;5013167;28;7133;-84
2022/08/31 01:41:22;;;;;;;;;;;;;;;;;;5012810;28;8354;-85
2022/08/31 01:43:49;;;;;;;;;;;;;;;;;;5012837;28;8673;-84
2022/08/31 01:46:15;;;;;;;;;;;;;;;;;;5012730;28;7016;-84
2022/08/31 01:48:43;;;;;;;;;;;;;;;;;;5012414;28;6998;-86
2022/08/31 01:51:10;;;;;;;;;;;;;;;;;;5012633;28;6987;-83
2022/08/31 01:53:35;;;;;;;;;;;;;;;;;;5013333;28;8628;-84
2022/08/31 01:56:01;;;;;;;;;;;;;;;;;;5012362;28;7335;-84
2022/08/31 01:58:27;;;;;;;;;;;;;;;;;;5013971;28;7041;-81
2022/08/31 02:00:53;;;;;;;;;;;;;;;;;;5012847;28;8470;-83
2022/08/31 02:03:18;;;;;;;;;;;;;;;;;;5012503;28;8341;-83
2022/08/31 02:05:44;;;;;;;;;;;;;;;;;;5012807;28;7194;-83
2022/08/31 02:08:10;;;;;;;;;;;;;;;;;;5012465;28;7400;-83
2022/08/31 02:10:36;;;;;;;;;;;;;;;;;;5012343;28;9406;-85
2022/08/31 02:13:03;;;;;;;;;;;;;;;;;;5012265;28;8367;-82
2022/08/31 02:15:28;;;;;;;;;;;;;;;;;;5012248;28;8422;-84
2022/08/31 02:17:54;;;;;;;;;;;;;;;;;;5012427;28;7138;-82
2022/08/31 02:20:19;;;;;;;;;;;;;;;;;;5011466;28;8385;-83
2022/08/31 02:22:47;;;;;;;;;;;;;;;;;;5011495;28;8336;-83
2022/08/31 02:25:13;;;;;;;;;;;;;;;;;;5011262;28;8406;-83
2022/08/31 02:27:39;;;;;;;;;;;;;;;;;;5011395;28;8395;-82
2022/08/31 02:30:07;;;;;;;;;;;;;;;;;;5011169;28;8481;-83
2022/08/31 02:32:33;;;;;;;;;;;;;;;;;;5011373;28;8305;-83
2022/08/31 02:34:58;;;;;;;;;;;;;;;;;;5011373;28;7007;-85
2022/08/31 02:37:24;;;;;;;;;;;;;;;;;;5010940;28;7059;-84
2022/08/31 02:39:49;;;;;;;;;;;;;;;;;;5011825;28;8508;-83
2022/08/31 02:42:15;;;;;;;;;;;;;;;;;;5011214;28;7142;-83
2022/08/31 02:44:40;;;;;;;;;;;;;;;;;;5011169;28;6993;-87
2022/08/31 02:47:06;;;;;;;;;;;;;;;;;;5011217;28;8328;-85
2022/08/31 02:49:32;;;;;;;;;;;;;;;;;;5011051;28;8368;-87
2022/08/31 02:51:57;;;;;;;;;;;;;;;;;;5010957;28;8217;-85
2022/08/31 02:54:23;;;;;;;;;;;;;;;;;;5010901;28;7012;-85
2022/08/31 02:56:49;;;;;;;;;;;;;;;;;;5011123;28;8378;-84
2022/08/31 02:59:14;;;;;;;;;;;;;;;;;;5011042;28;8770;-84
2022/08/31 03:01:41;;;;;;;;;;;;;;;;;;5011585;28;7393;-84
2022/08/31 03:04:07;;;;;;;;;;;;;;;;;;5010682;28;7047;-83
2022/08/31 03:06:33;;;;;;;;;;;;;;;;;;5011935;28;7118;-84
2022/08/31 03:08:59;;;;;;;;;;;;;;;;;;5011568;28;7001;-84
2022/08/31 03:11:25;;;;;;;;;;;;;;;;;;5011546;28;7119;-84
2022/08/31 03:13:51;;;;;;;;;;;;;;;;;;5011420;28;7155;-83
2022/08/31 03:16:17;;;;;;;;;;;;;;;;;;5011130;28;8287;-84
2022/08/31 03:18:43;;;;;;;;;;;;;;;;;;5010801;28;7035;-83
2022/08/31 03:21:09;;;;;;;;;;;;;;;;;;5011006;28;8397;-84
2022/08/31 03:23:35;;;;;;;;;;;;;;;;;;5011273;28;8849;-82
2022/08/31 03:26:04;;;;;;;;;;;;;;;;;;5011153;28;8418;-83
2022/08/31 03:28:29;;;;;;;;;;;;;;;;;;5011125;28;7169;-84
2022/08/31 03:30:55;;;;;;;;;;;;;;;;;;5010632;28;7135;-84
2022/08/31 03:33:21;;;;;;;;;;;;;;;;;;5012100;28;7093;-83
2022/08/31 03:35:46;;;;;;;;;;;;;;;;;;5011021;28;8422;-84
2022/08/31 03:38:14;;;;;;;;;;;;;;;;;;5010751;28;8511;-82
2022/08/31 03:40:40;;;;;;;;;;;;;;;;;;5010528;28;7145;-84
2022/08/31 03:43:07;;;;;;;;;;;;;;;;;;5010436;28;7109;-83
2022/08/31 03:45:33;;;;;;;;;;;;;;;;;;5010808;28;7055;-84
2022/08/31 03:48:00;;;;;;;;;;;;;;;;;;5010822;28;7041;-83
2022/08/31 03:50:25;;;;;;;;;;;;;;;;;;5011078;28;8427;-84
2022/08/31 03:52:52;;;;;;;;;;;;;;;;;;5010801;28;8844;-84
2022/08/31 03:55:18;;;;;;;;;;;;;;;;;;5010493;28;7125;-85
2022/08/31 03:57:43;;;;;;;;;;;;;;;;;;5010695;28;8430;-86
2022/08/31 04:00:09;;;;;;;;;;;;;;;;;;5010809;28;7021;-85
2022/08/31 04:02:38;;;;;;;;;;;;;;;;;;5010929;28;7023;-85
2022/08/31 04:05:04;;;;;;;;;;;;;;;;;;5010786;28;8681;-85
2022/08/31 04:07:30;;;;;;;;;;;;;;;;;;5010294;28;7113;-85
2022/08/31 04:09:55;;;;;;;;;;;;;;;;;;5011284;28;7039;-83
2022/08/31 04:12:21;;;;;;;;;;;;;;;;;;5014695;28;8412;-83
2022/08/31 04:14:47;;;;;;;;;;;;;;;;;;5014687;28;7135;-82
2022/08/31 04:17:12;;;;;;;;;;;;;;;;;;5015345;28;7570;-83
2022/08/31 04:19:40;;;;;;;;;;;;;;;;;;5014294;28;7150;-83
2022/08/31 04:22:06;;;;;;;;;;;;;;;;;;5013979;28;7251;-82
2022/08/31 04:24:32;;;;;;;;;;;;;;;;;;5013939;28;7170;-81
2022/08/31 04:26:58;;;;;;;;;;;;;;;;;;5014228;28;7067;-82
2022/08/31 04:29:23;;;;;;;;;;;;;;;;;;5014162;28;7165;-82
2022/08/31 04:31:49;;;;;;;;;;;;;;;;;;5015598;28;7183;-80
2022/08/31 04:34:16;;;;;;;;;;;;;;;;;;5014853;28;7162;-82
2022/08/31 04:36:44;;;;;;;;;;;;;;;;;;5014194;28;7164;-83
2022/08/31 04:39:09;;;;;;;;;;;;;;;;;;5014115;28;7043;-83
2022/08/31 04:41:37;;;;;;;;;;;;;;;;;;5014165;28;8417;-84
2022/08/31 04:44:03;;;;;;;;;;;;;;;;;;5014402;28;8298;-84
2022/08/31 04:46:29;;;;;;;;;;;;;;;;;;5013782;28;8376;-82
2022/08/31 04:48:56;;;;;;;;;;;;;;;;;;5014020;28;7164;-83
2022/08/31 04:51:27;;;;;;;;;;;;;;;;;;5013618;28;7235;-83
2022/08/31 04:53:53;;;;;;;;;;;;;;;;;;5014325;28;7254;-83
2022/08/31 04:56:21;;;;;;;;;;;;;;;;;;5013827;28;8720;-84
2022/08/31 04:58:49;;;;;;;;;;;;;;;;;;5013831;28;8324;-83
2022/08/31 05:01:17;;;;;;;;;;;;;;;;;;5014033;28;7034;-84
2022/08/31 05:03:43;;;;;;;;;;;;;;;;;;5014200;28;7164;-84
2022/08/31 05:06:16;;;;;;;;;;;;;;;;;;5013750;28;8612;-85
2022/08/31 05:08:43;;;;;;;;;;;;;;;;;;5013564;28;9320;-84
2022/08/31 05:11:13;;;;;;;;;;;;;;;;;;5013521;28;8665;-84
2022/08/31 05:13:39;;;;;;;;;;;;;;;;;;5013463;28;7046;-83
2022/08/31 05:16:06;;;;;;;;;;;;;;;;;;5013441;28;7179;-87
2022/08/31 05:18:32;;;;;;;;;;;;;;;;;;5016179;28;7427;-88
2022/08/31 05:21:07;;;;;;;;;;;;;;;;;;5015352;28;7007;-82
2022/08/31 05:23:32;;;;;;;;;;;;;;;;;;5015318;28;7322;-83
2022/08/31 05:25:57;;;;;;;;;;;;;;;;;;5009853;28;8470;-84
2022/08/31 05:28:23;;;;;;;;;;;;;;;;;;4997365;28;7005;-84
2022/08/31 05:30:48;;;;;;;;;;;;;;;;;;4996720;28;8411;-85
2022/08/31 05:33:15;;;;;;;;;;;;;;;;;;4996364;28;7035;-84
2022/08/31 05:35:43;;;;;;;;;;;;;;;;;;4999111;28;7546;-84
2022/08/31 05:38:09;;;;;;;;;;;;;;;;;;4998347;28;7162;-84
2022/08/31 05:40:34;;;;;;;;;;;;;;;;;;5014985;28;8285;-84
2022/08/31 05:43:00;;;;;;;;;;;;;;;;;;5009616;28;8418;-85
2022/08/31 05:45:25;;;;;;;;;;;;;;;;;;4996143;28;8607;-85
2022/08/31 05:47:51;;;;;;;;;;;;;;;;;;5016026;28;7371;-85
2022/08/31 05:50:17;;;;;;;;;;;;;;;;;;4990166;28;8918;-84
2022/08/31 05:52:43;;;;;;;;;;;;;;;;;;4985478;28;7024;-84
2022/08/31 05:55:08;;;;;;;;;;;;;;;;;;4980660;28;7071;-84
2022/08/31 05:57:34;;;;;;;;;;;;;;;;;;4980583;28;7157;-85
2022/08/31 05:59:59;;;;;;;;;;;;;;;;;;4980300;28;7297;-84
2022/08/31 06:02:25;;;;;;;;;;;;;;;;;;4979623;28;7225;-84
2022/08/31 06:04:54;;;;;;;;;;;;;;;;;;4979588;28;7059;-84
2022/08/31 06:07:20;;;;;;;;;;;;;;;;;;4996297;28;7129;-83
2022/08/31 06:09:46;;;;;;;;;;;;;;;;;;4979707;28;8322;-84
2022/08/31 06:12:14;;;;;;;;;;;;;;;;;;4980020;28;6986;-83
2022/08/31 06:14:40;;;;;;;;;;;;;;;;;;4980174;28;7002;-83
2022/08/31 06:17:06;;;;;;;;;;;;;;;;;;4996194;28;7015;-84
2022/08/31 06:19:31;;;;;;;;;;;;;;;;;;4995680;28;6809;-84
2022/08/31 06:21:57;;;;;;;;;;;;;;;;;;4980036;28;8607;-84
2022/08/31 06:24:23;;;;;;;;;;;;;;;;;;4979948;28;7041;-86
2022/08/31 06:26:54;;;;;;;;;;;;;;;;;;4995993;28;7122;-84
2022/08/31 06:29:20;;;;;;;;;;;;;;;;;;4996099;28;7154;-84
2022/08/31 06:31:46;;;;;;;;;;;;;;;;;;4995530;28;9438;-83
2022/08/31 06:34:13;;;;;;;;;;;;;;;;;;4995369;28;7028;-86
2022/08/31 06:36:39;;;;;;;;;;;;;;;;;;4995523;28;8423;-87
2022/08/31 06:39:04;;;;;;;;;;;;;;;;;;4979327;28;6997;-83
2022/08/31 06:41:32;;;;;;;;;;;;;;;;;;4979344;28;7303;-82
2022/08/31 06:43:59;;;;;;;;;;;;;;;;;;4995634;28;8367;-82
2022/08/31 06:46:25;;;;;;;;;;;;;;;;;;4994559;28;7157;-86
2022/08/31 06:48:55;;;;;;;;;;;;;;;;;;4995185;28;8399;-84
2022/08/31 06:51:21;;;;;;;;;;;;;;;;;;4995299;28;7615;-82
2022/08/31 06:53:47;;;;;;;;;;;;;;;;;;4995620;28;7164;-83
2022/08/31 06:56:16;;;;;;;;;;;;;;;;;;4979472;28;7222;-83
2022/08/31 06:58:42;;;;;;;;;;;;;;;;;;4994953;28;7225;-82
2022/08/31 07:01:10;;;;;;;;;;;;;;;;;;4977707;28;8408;-83
2022/08/31 07:03:37;;;;;;;;;;;;;;;;;;4993931;28;8788;-81
2022/08/31 07:06:07;;;;;;;;;;;;;;;;;;4994125;28;8426;-84
2022/08/31 07:08:33;;;;;;;;;;;;;;;;;;4993909;28;8484;-82
2022/08/31 07:10:59;;;;;;;;;;;;;;;;;;4994073;28;8633;-85
2022/08/31 07:13:25;;;;;;;;;;;;;;;;;;4994079;28;7175;-83
2022/08/31 07:15:51;;;;;;;;;;;;;;;;;;4995194;28;8396;-83
2022/08/31 07:18:16;;;;;;;;;;;;;;;;;;4978808;28;8768;-84
2022/08/31 07:20:41;;;;;;;;;;;;;;;;;;4978457;28;7043;-83
2022/08/31 07:23:07;;;;;;;;;;;;;;;;;;4994460;28;7246;-84
2022/08/31 07:25:35;;;;;;;;;;;;;;;;;;4978699;28;8397;-83
2022/08/31 07:28:01;;;;;;;;;;;;;;;;;;4994961;28;8583;-82
2022/08/31 07:30:26;;;;;;;;;;;;;;;;;;4994652;28;8511;-84
2022/08/31 07:32:52;;;;;;;;;;;;;;;;;;4978497;28;8731;-84
2022/08/31 07:35:18;;;;;;;;;;;;;;;;;;4979051;28;7015;-83
2022/08/31 07:43:12;;;;;;;;;;;;;;;;;;4995839;28;6926;-83
2022/08/31 07:45:39;;;;;;;;;;;;;;;;;;4978745;28;8438;-83
2022/08/31 07:48:04;;;;;;;;;;;;;;;;;;4994446;28;8608;-83
2022/08/31 07:50:30;;;;;;;;;;;;;;;;;;4993834;28;8982;-83
2022/08/31 07:52:57;;;;;;;;;;;;;;;;;;4994333;28;8279;-83
2022/08/31 07:55:25;;;;;;;;;;;;;;;;;;4994112;28;7038;-82
2022/08/31 07:57:53;;;;;;;;;;;;;;;;;;4994742;28;7516;-84
2022/08/31 08:00:24;;;;;;;;;;;;;;;;;;4994275;28;8422;-83
2022/08/31 08:02:50;;;;;;;;;;;;;;;;;;4994742;28;7164;-84
2022/08/31 08:05:21;;;;;;;;;;;;;;;;;;4977908;28;7154;-85
2022/08/31 08:07:51;;;;;;;;;;;;;;;;;;4994262;28;8350;-84
2022/08/31 08:10:20;;;;;;;;;;;;;;;;;;4993853;28;7026;-83
2022/08/31 08:12:49;;;;;;;;;;;;;;;;;;4994891;28;7057;-83
2022/08/31 08:15:14;;;;;;;;;;;;;;;;;;4994176;28;7419;-84
2022/08/31 08:17:40;;;;;;;;;;;;;;;;;;4978514;28;8622;-84
2022/08/31 08:20:06;;;;;;;;;;;;;;;;;;4990943;28;7221;-84
2022/08/31 08:22:32;;;;;;;;;;;;;;;;;;4991096;28;7172;-83
2022/08/31 08:24:59;;;;;;;;;;;;;;;;;;4991375;28;8433;-83
2022/08/31 08:27:25;;;;;;;;;;;;;;;;;;4990858;28;8491;-83
2022/08/31 08:29:51;;;;;;;;;;;;;;;;;;4990486;28;8321;-81
2022/08/31 08:32:17;;;;;;;;;;;;;;;;;;4990282;28;7167;-83
2022/08/31 08:34:43;;;;;;;;;;;;;;;;;;4990807;28;7147;-83
2022/08/31 08:37:13;;;;;;;;;;;;;;;;;;4990804;28;8415;-83
2022/08/31 08:39:41;;;;;;;;;;;;;;;;;;4990641;28;7355;-83
2022/08/31 08:42:11;;;;;;;;;;;;;;;;;;4990486;28;7257;-83
2022/08/31 08:44:37;;;;;;;;;;;;;;;;;;4990677;28;8423;-83
2022/08/31 08:47:06;;;;;;;;;;;;;;;;;;4990602;28;8333;-84
2022/08/31 08:49:52;;;;;;;;;;;;;;;;;;4990981;28;7165;-84
2022/08/31 08:52:27;;;;;;;;;;;;;;;;;;4990895;28;7014;-84
2022/08/31 08:54:54;;;;;;;;;;;;;;;;;;4974561;28;7149;-84
2022/08/31 08:57:20;;;;;;;;;;;;;;;;;;4993815;28;8722;-84
2022/08/31 08:59:47;;;;;;;;;;;;;;;;;;4977789;28;7054;-85
2022/08/31 09:02:17;;;;;;;;;;;;;;;;;;4994088;28;7170;-84
2022/08/31 09:04:43;;;;;;;;;;;;;;;;;;4994018;28;8533;-83
2022/08/31 09:07:10;;;;;;;;;;;;;;;;;;4977694;28;8371;-84
2022/08/31 09:09:58;;;;;;;;;;;;;;;;;;4977256;28;7066;-84
2022/08/31 09:12:37;;;;;;;;;;;;;;;;;;4993994;28;8730;-84
2022/08/31 09:15:02;;;;;;;;;;;;;;;;;;4993475;28;8313;-85
2022/08/31 09:17:34;;;;;;;;;;;;;;;;;;4977813;28;8394;-85
2022/08/31 09:20:04;;;;;;;;;;;;;;;;;;4977133;28;8481;-85
2022/08/31 09:22:45;;;;;;;;;;;;;;;;;;4993507;28;7240;-85
2022/08/31 09:25:34;;;;;;;;;;;;;;;;;;4993931;28;7522;-86
2022/08/31 09:28:06;;;;;;;;;;;;;;;;;;4993908;28;8313;-86
2022/08/31 09:30:31;;;;;;;;;;;;;;;;;;4993149;28;8691;-86
2022/08/31 09:32:57;;;;;;;;;;;;;;;;;;4976758;28;7145;-84
2022/08/31 09:35:25;;;;;;;;;;;;;;;;;;4992796;28;8427;-84
2022/08/31 09:38:06;;;;;;;;;;;;;;;;;;4993190;28;7376;-84
2022/08/31 09:40:43;;;;;;;;;;;;;;;;;;4993362;28;7196;-84
2022/08/31 09:43:08;;;;;;;;;;;;;;;;;;4992696;28;8433;-84
2022/08/31 09:45:35;;;;;;;;;;;;;;;;;;4975532;28;7052;-83
2022/08/31 09:48:02;;;;;;;;;;;;;;;;;;4991989;28;7198;-83
2022/08/31 09:50:29;;;;;;;;;;;;;;;;;;4992250;28;7195;-83
2022/08/31 09:56:14;;;;;;;;;;;;;;;;;;4971422;28;7054;-81
2022/08/31 09:58:42;;;;;;;;;;;;;;;;;;4991887;28;8483;-84
2022/08/31 10:01:14;;;;;;;;;;;;;;;;;;4993040;28;8489;-84
2022/08/31 10:03:44;;;;;;;;;;;;;;;;;;4993031;28;8764;-84
2022/08/31 10:06:25;;;;;;;;;;;;;;;;;;4992867;28;7426;-84
2022/08/31 10:08:59;;;;;;;;;;;;;;;;;;4992644;28;7181;-85
2022/08/31 10:11:30;;;;;;;;;;;;;;;;;;4992563;28;7066;-86
2022/08/31 10:14:07;;;;;;;;;;;;;;;;;;4993852;28;9631;-87
2022/08/31 10:16:46;;;;;;;;;;;;;;;;;;4993318;28;7181;-87
2022/08/31 10:19:12;;;;;;;;;;;;;;;;;;4992235;28;7100;-86
2022/08/31 10:21:50;;;;;;;;;;;;;;;;;;4976295;28;6993;-86
2022/08/31 10:24:27;;;;;;;;;;;;;;;;;;4976877;28;7267;-86
2022/08/31 10:27:07;;;;;;;;;;;;;;;;;;4992678;28;7072;-82
2022/08/31 10:29:33;;;;;;;;;;;;;;;;;;4993238;28;8430;-84
2022/08/31 10:32:02;;;;;;;;;;;;;;;;;;4976548;28;7003;-83
2022/08/31 10:37:37;;;;;;;;;;;;;;;;;;4976836;28;6814;-83
2022/08/31 10:40:07;;;;;;;;;;;;;;;;;;4976202;28;7047;-83
2022/08/31 10:42:44;;;;;;;;;;;;;;;;;;4992493;28;7073;-84
2022/08/31 10:45:22;;;;;;;;;;;;;;;;;;4992264;28;8673;-83
2022/08/31 10:47:52;;;;;;;;;;;;;;;;;;4992287;28;7188;-83
2022/08/31 10:50:34;;;;;;;;;;;;;;;;;;4976237;28;8762;-84
2022/08/31 10:53:21;;;;;;;;;;;;;;;;;;4975787;28;8447;-85
2022/08/31 10:55:52;;;;;;;;;;;;;;;;;;4991526;28;7065;-84
2022/08/31 10:58:32;;;;;;;;;;;;;;;;;;4975541;28;7060;-83
2022/08/31 11:01:06;;;;;;;;;;;;;;;;;;4991896;28;8306;-84
2022/08/31 11:03:35;;;;;;;;;;;;;;;;;;4991748;28;7345;-84
2022/08/31 11:06:19;;;;;;;;;;;;;;;;;;4975188;28;7179;-83
2022/08/31 11:08:55;;;;;;;;;;;;;;;;;;4975228;28;7014;-84
2022/08/31 11:11:35;;;;;;;;;;;;;;;;;;4991705;28;7189;-84
2022/08/31 11:14:20;;;;;;;;;;;;;;;;;;4991432;28;7073;-84
2022/08/31 11:17:09;;;;;;;;;;;;;;;;;;4975178;28;8655;-84
2022/08/31 11:19:38;;;;;;;;;;;;;;;;;;4991057;28;7192;-83
2022/08/31 11:22:03;;;;;;;;;;;;;;;;;;4975036;28;7386;-84
2022/08/31 11:24:28;;;;;;;;;;;;;;;;;;4975486;28;9390;-84
2022/08/31 11:26:55;;;;;;;;;;;;;;;;;;4975107;28;8591;-84
2022/08/31 11:29:30;;;;;;;;;;;;;;;;;;4976030;28;8350;-84
2022/08/31 11:32:03;;;;;;;;;;;;;;;;;;4974962;28;8874;-83
2022/08/31 11:34:45;;;;;;;;;;;;;;;;;;4991236;28;7168;-86
2022/08/31 11:37:12;;;;;;;;;;;;;;;;;;4990960;28;7100;-86
2022/08/31 11:39:44;;;;;;;;;;;;;;;;;;4991139;28;8767;-86
2022/08/31 11:42:11;;;;;;;;;;;;;;;;;;4991285;28;8507;-86
2022/08/31 11:44:40;;;;;;;;;;;;;;;;;;4991275;28;8680;-85
2022/08/31 11:47:11;;;;;;;;;;;;;;;;;;4974728;28;7530;-86
2022/08/31 11:49:39;;;;;;;;;;;;;;;;;;4991182;28;9175;-84
2022/08/31 11:52:13;;;;;;;;;;;;;;;;;;4991285;28;8444;-84
2022/08/31 11:54:42;;;;;;;;;;;;;;;;;;4989954;28;8890;-87
2022/08/31 11:57:14;;;;;;;;;;;;;;;;;;4974885;28;8444;-87
2022/08/31 11:59:47;;;;;;;;;;;;;;;;;;4991146;28;8553;-85
2022/08/31 12:02:36;;;;;;;;;;;;;;;;;;4990942;28;7050;-85
2022/08/31 12:05:02;;;;;;;;;;;;;;;;;;4978690;28;8441;-85
2022/08/31 12:07:31;;;;;;;;;;;;;;;;;;4991665;28;7176;-86
2022/08/31 12:09:59;;;;;;;;;;;;;;;;;;4974536;28;8457;-87
2022/08/31 12:12:31;;;;;;;;;;;;;;;;;;4974711;28;9092;-86
2022/08/31 12:15:18;;;;;;;;;;;;;;;;;;4974737;28;8415;-86
2022/08/31 12:17:57;;;;;;;;;;;;;;;;;;4990865;28;7347;-86
2022/08/31 12:20:31;;;;;;;;;;;;;;;;;;4990783;28;7371;-86
2022/08/31 12:26:02;;;;;;;;;;;;;;;;;;4975787;28;6940;-83
2022/08/31 12:28:44;;;;;;;;;;;;;;;;;;4974151;28;9188;-82
2022/08/31 12:31:13;;;;;;;;;;;;;;;;;;4992352;28;8437;-83
2022/08/31 12:33:48;;;;;;;;;;;;;;;;;;4994552;28;7054;-83
2022/08/31 12:36:23;;;;;;;;;;;;;;;;;;4994986;28;7021;-83
2022/08/31 12:39:05;;;;;;;;;;;;;;;;;;4994638;28;8462;-83
2022/08/31 12:41:31;;;;;;;;;;;;;;;;;;4994803;28;7240;-83
2022/08/31 12:43:57;;;;;;;;;;;;;;;;;;4994021;28;8531;-83
2022/08/31 12:46:22;;;;;;;;;;;;;;;;;;4994171;28;7175;-82
2022/08/31 12:48:59;;;;;;;;;;;;;;;;;;4977946;28;7259;-83
2022/08/31 12:51:28;;;;;;;;;;;;;;;;;;4994485;28;7072;-83
2022/08/31 12:54:07;;;;;;;;;;;;;;;;;;4978108;28;8715;-83
2022/08/31 12:56:41;;;;;;;;;;;;;;;;;;4993761;28;7170;-83
2022/08/31 12:59:13;;;;;;;;;;;;;;;;;;4979101;28;7409;-84
2022/08/31 13:01:42;;;;;;;;;;;;;;;;;;4977490;28;8406;-84
2022/08/31 13:04:08;;;;;;;;;;;;;;;;;;4993731;28;8435;-83
2022/08/31 13:06:36;;;;;;;;;;;;;;;;;;4994263;28;7167;-83
2022/08/31 13:09:03;;;;;;;;;;;;;;;;;;4993929;28;7175;-83
2022/08/31 13:11:32;;;;;;;;;;;;;;;;;;4993603;28;7420;-85
2022/08/31 13:14:26;;;;;;;;;;;;;;;;;;4993952;28;8617;-85
2022/08/31 13:17:10;;;;;;;;;;;;;;;;;;4964776;28;7275;-85
2022/08/31 13:19:36;;;;;;;;;;;;;;;;;;4993836;28;8478;-85
2022/08/31 13:22:07;;;;;;;;;;;;;;;;;;4994053;28;8427;-85
2022/08/31 13:24:35;;;;;;;;;;;;;;;;;;4993935;28;8327;-86
2022/08/31 13:27:15;;;;;;;;;;;;;;;;;;4993686;28;7357;-85
2022/08/31 13:29:42;;;;;;;;;;;;;;;;;;4993505;28;8285;-86
2022/08/31 13:32:10;;;;;;;;;;;;;;;;;;4993255;28;8318;-85
2022/08/31 13:34:40;;;;;;;;;;;;;;;;;;4994146;28;9141;-84
2022/08/31 13:37:17;;;;;;;;;;;;;;;;;;4994430;28;7186;-85
2022/08/31 13:39:45;;;;;;;;;;;;;;;;;;4993215;28;8440;-86
2022/08/31 13:42:31;;;;;;;;;;;;;;;;;;4992887;28;7174;-86
2022/08/31 13:44:59;;;;;;;;;;;;;;;;;;4966723;28;7256;-83
2022/08/31 13:47:36;;;;;;;;;;;;;;;;;;4993475;28;8446;-82
2022/08/31 13:50:17;;;;;;;;;;;;;;;;;;4992841;28;8317;-83
2022/08/31 13:52:50;;;;;;;;;;;;;;;;;;4992200;28;8340;-82
2022/08/31 13:55:31;;;;;;;;;;;;;;;;;;4992548;28;8410;-85
2022/08/31 13:58:01;;;;;;;;;;;;;;;;;;4992808;28;7178;-84
2022/08/31 14:00:28;;;;;;;;;;;;;;;;;;4992294;28;6942;-85
2022/08/31 14:02:57;;;;;;;;;;;;;;;;;;4976485;28;7450;-84
2022/08/31 14:05:31;;;;;;;;;;;;;;;;;;4992737;28;9162;-85
2022/08/31 14:08:01;;;;;;;;;;;;;;;;;;4992671;28;8751;-85
2022/08/31 14:10:31;;;;;;;;;;;;;;;;;;4991542;28;7280;-85
2022/08/31 14:12:56;;;;;;;;;;;;;;;;;;4991656;28;8298;-85
2022/08/31 14:15:41;;;;;;;;;;;;;;;;;;4975303;28;8463;-84
2022/08/31 14:18:25;;;;;;;;;;;;;;;;;;4991566;28;8477;-83
2022/08/31 14:21:08;;;;;;;;;;;;;;;;;;4974845;28;8778;-85
2022/08/31 14:23:37;;;;;;;;;;;;;;;;;;4975593;28;7081;-86
2022/08/31 14:26:05;;;;;;;;;;;;;;;;;;4975903;28;8719;-86
2022/08/31 14:28:39;;;;;;;;;;;;;;;;;;4993080;28;7235;-86
2022/08/31 14:31:20;;;;;;;;;;;;;;;;;;4992323;28;8834;-85
2022/08/31 14:33:49;;;;;;;;;;;;;;;;;;4992096;28;7070;-86
2022/08/31 14:36:16;;;;;;;;;;;;;;;;;;4992275;28;8810;-86
2022/08/31 14:38:43;;;;;;;;;;;;;;;;;;4992399;28;8328;-86
2022/08/31 14:41:17;;;;;;;;;;;;;;;;;;4992151;28;7181;-85
2022/08/31 14:43:45;;;;;;;;;;;;;;;;;;4991719;28;7277;-85
2022/08/31 14:46:15;;;;;;;;;;;;;;;;;;4992184;28;7297;-84
2022/08/31 14:48:42;;;;;;;;;;;;;;;;;;4991345;28;7105;-85
2022/08/31 14:51:09;;;;;;;;;;;;;;;;;;4991859;28;7065;-84
2022/08/31 14:53:38;;;;;;;;;;;;;;;;;;4991123;28;8720;-85
2022/08/31 14:56:07;;;;;;;;;;;;;;;;;;4991334;28;7203;-86
2022/08/31 14:58:40;;;;;;;;;;;;;;;;;;4992374;28;7233;-85
2022/08/31 15:01:08;;;;;;;;;;;;;;;;;;4992210;28;9336;-84
2022/08/31 15:03:35;;;;;;;;;;;;;;;;;;4991562;28;8364;-84
2022/08/31 15:06:03;;;;;;;;;;;;;;;;;;4991759;28;7215;-85
2022/08/31 15:08:29;;;;;;;;;;;;;;;;;;4991751;28;9130;-86
2022/08/31 15:10:55;;;;;;;;;;;;;;;;;;4991683;28;8480;-86
2022/08/31 15:13:22;;;;;;;;;;;;;;;;;;4990982;28;7224;-84
2022/08/31 15:15:49;;;;;;;;;;;;;;;;;;4991181;28;9099;-83
2022/08/31 15:18:23;;;;;;;;;;;;;;;;;;4991421;28;8569;-84
2022/08/31 15:20:50;;;;;;;;;;;;;;;;;;4991263;28;7516;-84
2022/08/31 15:23:15;;;;;;;;;;;;;;;;;;4991181;28;7105;-84
2022/08/31 15:25:41;;;;;;;;;;;;;;;;;;4991293;28;8445;-84
2022/08/31 15:28:07;;;;;;;;;;;;;;;;;;4991377;28;8891;-85
2022/08/31 15:30:34;;;;;;;;;;;;;;;;;;4991221;28;7388;-85
2022/08/31 15:33:00;;;;;;;;;;;;;;;;;;4976317;28;7089;-86
2022/08/31 15:35:29;;;;;;;;;;;;;;;;;;4991562;28;8796;-86
2022/08/31 15:38:00;;;;;;;;;;;;;;;;;;4991021;28;8663;-86
2022/08/31 15:40:27;;;;;;;;;;;;;;;;;;4991671;28;8416;-85
2022/08/31 15:42:53;;;;;;;;;;;;;;;;;;4990679;28;7179;-87
2022/08/31 15:45:19;;;;;;;;;;;;;;;;;;4991966;28;7168;-86
2022/08/31 15:50:29;;;;;;;;;;;;;;;;;;4976269;28;6821;-86
2022/08/31 15:52:58;;;;;;;;;;;;;;;;;;4990960;28;8615;-86
2022/08/31 15:55:27;;;;;;;;;;;;;;;;;;4990936;28;8398;-87
2022/08/31 15:57:58;;;;;;;;;;;;;;;;;;4990439;28;8861;-86
2022/08/31 16:00:25;;;;;;;;;;;;;;;;;;4981163;28;8597;-85
2022/08/31 16:02:53;;;;;;;;;;;;;;;;;;4964841;28;8460;-85
2022/08/31 16:05:19;;;;;;;;;;;;;;;;;;4967934;28;7205;-84
2022/08/31 16:07:45;;;;;;;;;;;;;;;;;;4972594;28;8301;-84
2022/08/31 16:10:14;;;;;;;;;;;;;;;;;;4972697;28;7212;-86
2022/08/31 16:12:40;;;;;;;;;;;;;;;;;;4973036;28;8454;-86
2022/08/31 16:15:08;;;;;;;;;;;;;;;;;;4979988;28;8458;-85
2022/08/31 16:17:34;;;;;;;;;;;;;;;;;;4979618;28;7055;-85
2022/08/31 16:20:00;;;;;;;;;;;;;;;;;;4991340;28;7374;-84
2022/08/31 16:22:26;;;;;;;;;;;;;;;;;;4997726;28;7021;-84
2022/08/31 16:24:51;;;;;;;;;;;;;;;;;;4997884;28;7158;-84
2022/08/31 16:27:18;;;;;;;;;;;;;;;;;;4997507;28;7174;-83
2022/08/31 16:29:45;;;;;;;;;;;;;;;;;;4998498;28;8427;-84
2022/08/31 16:32:11;;;;;;;;;;;;;;;;;;4997667;28;8617;-85
2022/08/31 16:34:38;;;;;;;;;;;;;;;;;;4997716;28;8432;-86
2022/08/31 16:37:06;;;;;;;;;;;;;;;;;;4997886;28;8462;-86
2022/08/31 16:39:33;;;;;;;;;;;;;;;;;;4997644;28;8375;-86
2022/08/31 16:41:58;;;;;;;;;;;;;;;;;;4997617;28;8438;-88
2022/08/31 16:44:23;;;;;;;;;;;;;;;;;;4997397;28;8443;-84
2022/08/31 16:46:49;;;;;;;;;;;;;;;;;;4997405;28;8494;-86
2022/08/31 16:49:34;;;;;;;;;;;;;;;;;;4997622;28;8396;-86
2022/08/31 16:52:11;;;;;;;;;;;;;;;;;;4997713;28;8359;-87
2022/08/31 16:54:41;;;;;;;;;;;;;;;;;;4997903;28;7277;-86
2022/08/31 16:57:12;;;;;;;;;;;;;;;;;;4997164;28;7956;-86
2022/08/31 16:59:42;;;;;;;;;;;;;;;;;;4997259;28;8615;-86
2022/08/31 17:02:09;;;;;;;;;;;;;;;;;;4997098;28;7087;-85
2022/08/31 17:04:36;;;;;;;;;;;;;;;;;;4997103;28;8443;-85
2022/08/31 17:07:02;;;;;;;;;;;;;;;;;;4997027;28;8388;-86
2022/08/31 17:09:28;;;;;;;;;;;;;;;;;;4997012;28;8795;-82
2022/08/31 17:11:55;;;;;;;;;;;;;;;;;;4996829;28;7417;-85
2022/08/31 17:14:23;;;;;;;;;;;;;;;;;;4996797;28;7040;-84
2022/08/31 17:16:49;;;;;;;;;;;;;;;;;;4996433;28;8672;-85
2022/08/31 17:19:18;;;;;;;;;;;;;;;;;;4996705;28;8492;-85
2022/08/31 17:21:49;;;;;;;;;;;;;;;;;;4997135;28;8522;-82
2022/08/31 17:24:27;;;;;;;;;;;;;;;;;;4997869;28;7203;-85
2022/08/31 17:27:01;;;;;;;;;;;;;;;;;;4997939;28;8459;-84
2022/08/31 17:29:32;;;;;;;;;;;;;;;;;;4999230;28;8605;-85
2022/08/31 17:32:02;;;;;;;;;;;;;;;;;;4996915;28;8808;-86
2022/08/31 17:34:29;;;;;;;;;;;;;;;;;;4997300;28;8448;-83
2022/08/31 17:36:57;;;;;;;;;;;;;;;;;;4996506;28;7193;-85